createdAt,value
2022-09-20T11:35:00.106Z,646.88
2022-09-20T11:36:00.076Z,669.38
2022-09-20T11:37:00.063Z,680.63
2022-09-20T11:38:00.028Z,697.50
2022-09-20T11:39:00.028Z,731.25
2022-09-20T11:40:00.035Z,770.63
2022-09-20T11:40:59.995Z,821.25
2022-09-20T11:41:59.969Z,855.00
2022-09-20T11:42:59.950Z,849.38
2022-09-20T11:43:59.930Z,860.63
2022-09-20T11:44:59.916Z,877.50
2022-09-20T11:45:59.967Z,866.25
2022-09-20T11:46:59.873Z,871.88
2022-09-20T11:47:59.865Z,860.63
2022-09-20T11:48:59.838Z,804.38
2022-09-20T11:49:59.831Z,697.50
2022-09-20T11:50:59.818Z,540.00
2022-09-20T12:41:51.189Z,368634.38
2022-09-20T12:42:51.165Z,368634.38
2022-09-20T12:43:51.148Z,368634.38
2022-09-20T12:44:51.120Z,368634.38
2022-09-20T12:45:51.126Z,368634.38
2022-09-20T12:46:51.109Z,368634.38
2022-09-20T12:47:51.068Z,368634.38
2022-09-20T12:48:51.051Z,368634.38
2022-09-20T12:49:51.035Z,368634.38
2022-09-20T12:50:51.026Z,368634.38
2022-09-20T12:51:51.017Z,368634.38
2022-09-20T12:52:50.984Z,368634.38
2022-09-20T12:53:50.972Z,368634.38
2022-09-20T13:05:50.929Z,427.50
2022-09-20T13:06:50.887Z,405.00
2022-09-20T13:07:50.887Z,534.38
2022-09-20T13:08:50.861Z,714.38
2022-09-20T13:09:50.844Z,990.00
2022-09-20T13:10:50.818Z,1395.00
2022-09-20T13:11:50.806Z,928.13
2022-09-20T13:12:54.416Z,669.38
2022-09-20T13:13:50.780Z,781.88
2022-09-20T13:14:50.761Z,995.63
2022-09-20T13:15:50.733Z,1265.63
2022-09-20T13:16:50.725Z,956.25
2022-09-20T13:17:50.716Z,1389.38
2022-09-20T13:18:50.696Z,748.13
2022-09-20T13:19:50.670Z,646.88
2022-09-20T13:20:50.652Z,1400.63
2022-09-20T13:21:50.647Z,916.88
2022-09-20T13:22:50.621Z,894.38
2022-09-20T13:23:50.618Z,1029.38
2022-09-20T13:24:50.588Z,1338.75
2022-09-20T13:25:50.585Z,1355.63
2022-09-20T13:26:50.558Z,1389.38
2022-09-20T13:27:50.554Z,2874.38
2022-09-20T13:28:50.545Z,2874.38
2022-09-20T13:29:50.514Z,1321.88
2022-09-20T13:30:50.508Z,1361.25
2022-09-20T13:31:50.533Z,2874.38
2022-09-20T13:32:50.473Z,2874.38
2022-09-20T13:33:50.480Z,1248.75
2022-09-20T13:34:50.452Z,506.25
2022-09-20T13:35:50.430Z,427.50
2022-09-20T13:36:54.125Z,438.75
2022-09-20T13:37:50.412Z,618.75
2022-09-20T13:38:50.406Z,933.75
2022-09-20T13:39:50.383Z,613.13
2022-09-20T13:40:50.357Z,1125.00
2022-09-20T13:41:50.357Z,1293.75
2022-09-20T13:42:50.338Z,1068.75
2022-09-20T13:43:50.328Z,765.00
2022-09-20T13:44:50.309Z,540.00
2022-09-20T13:45:50.305Z,517.50
2022-09-20T13:46:50.284Z,590.63
2022-09-20T13:47:50.262Z,1428.75
2022-09-20T13:48:50.266Z,888.75
2022-09-20T13:49:50.233Z,748.13
2022-09-20T13:50:53.491Z,731.25
2022-09-20T13:51:50.205Z,1175.63
2022-09-20T13:52:50.188Z,2874.38
2022-09-20T13:53:50.200Z,1344.38
2022-09-20T13:54:50.169Z,714.38
2022-09-20T13:55:50.148Z,388.13
2022-09-20T13:56:50.131Z,326.25
2022-09-20T13:57:50.128Z,275.63
2022-09-20T14:07:44.610Z,368634.38
2022-09-20T14:08:44.587Z,368634.38
2022-09-20T14:09:44.579Z,368634.38
2022-09-20T14:10:44.554Z,368634.38
2022-09-20T14:11:44.525Z,368634.38
2022-09-20T14:12:44.520Z,368634.38
2022-09-20T14:13:44.508Z,368634.38
2022-09-20T15:00:27.433Z,500.63
2022-09-20T15:08:00.557Z,568.13
2022-09-20T15:10:33.292Z,590.63
2022-09-20T15:11:41.213Z,658.13
2022-09-20T15:12:41.195Z,658.13
2022-09-20T15:13:41.165Z,607.50
2022-09-20T15:14:41.155Z,590.63
2022-09-20T15:15:55.165Z,596.25
2022-09-20T15:16:55.148Z,635.63
2022-09-20T15:17:55.137Z,680.63
2022-09-20T15:18:55.110Z,680.63
2022-09-20T15:19:55.181Z,573.75
